createdAt,value
2016-12-18T00:00:08.372Z,22.06
2016-12-18T00:00:36.603Z,21.98
2016-12-18T00:01:04.825Z,22
2016-12-18T00:01:32.642Z,21.99
2016-12-18T00:02:00.510Z,21.98
2016-12-18T00:02:28.377Z,21.98
2016-12-18T00:02:56.253Z,21.99
2016-12-18T00:03:24.094Z,21.99
2016-12-18T00:03:51.880Z,21.93
2016-12-18T00:04:20.003Z,21.89
2016-12-18T00:04:47.874Z,21.91
2016-12-18T00:05:15.732Z,21.95
2016-12-18T00:05:43.666Z,22.04
2016-12-18T00:06:11.515Z,22
2016-12-18T00:06:39.349Z,22.06
2016-12-18T00:07:07.195Z,21.99
2016-12-18T00:07:35.078Z,22
2016-12-18T00:08:02.903Z,21.99
2016-12-18T00:08:30.790Z,21.96
2016-12-18T00:08:58.648Z,21.92
2016-12-18T00:09:26.712Z,21.96
2016-12-18T00:09:54.533Z,22.02
2016-12-18T00:10:22.382Z,22.06
2016-12-18T00:10:50.217Z,22
2016-12-18T00:11:18.196Z,21.96
2016-12-18T00:11:46.046Z,21.95
2016-12-18T00:12:13.844Z,21.98
2016-12-18T00:12:41.656Z,21.99
2016-12-18T00:13:09.498Z,22.04
2016-12-18T00:13:37.323Z,22.02
2016-12-18T00:14:05.105Z,22.08
2016-12-18T00:14:33.127Z,22
2016-12-18T00:15:00.966Z,21.88
2016-12-18T00:15:28.878Z,21.89
2016-12-18T00:15:56.687Z,21.95
2016-12-18T00:16:24.554Z,21.89
2016-12-18T00:16:52.437Z,21.93
2016-12-18T00:17:20.359Z,21.79
2016-12-18T00:17:48.200Z,21.88
2016-12-18T00:18:16.027Z,21.88
2016-12-18T00:18:43.823Z,21.92
2016-12-18T00:19:11.630Z,21.93
2016-12-18T00:19:39.647Z,21.93
2016-12-18T00:20:07.465Z,21.89
2016-12-18T00:20:35.300Z,21.91
2016-12-18T00:21:03.134Z,21.95
2016-12-18T00:21:30.997Z,21.93
2016-12-18T00:21:58.828Z,21.96
2016-12-18T00:22:26.697Z,21.92
2016-12-18T00:22:54.492Z,21.85
2016-12-18T00:23:22.370Z,21.88
2016-12-18T00:23:50.216Z,21.89
2016-12-18T00:24:18.019Z,21.89
2016-12-18T00:24:46.080Z,21.93
2016-12-18T00:25:13.867Z,21.92
2016-12-18T00:25:41.677Z,21.93
2016-12-18T00:26:09.554Z,21.99
2016-12-18T00:26:37.379Z,22.1
2016-12-18T00:27:05.234Z,22.08
2016-12-18T00:27:33.077Z,22.11
2016-12-18T00:28:00.936Z,22
2016-12-18T00:28:28.761Z,22.07
2016-12-18T00:28:56.592Z,22.02
2016-12-18T00:29:24.379Z,21.93
2016-12-18T00:29:52.375Z,21.79
2016-12-18T00:30:20.217Z,21.79
2016-12-18T00:30:48.032Z,21.82
2016-12-18T00:31:15.898Z,21.89
2016-12-18T00:31:43.794Z,21.92
2016-12-18T00:32:11.687Z,21.92
2016-12-18T00:32:39.491Z,21.85
2016-12-18T00:33:07.499Z,21.98
2016-12-18T00:33:35.327Z,21.99
2016-12-18T00:34:03.126Z,21.96
2016-12-18T00:34:31.002Z,21.92
2016-12-18T00:34:59.229Z,21.92
2016-12-18T00:35:27.012Z,21.85
2016-12-18T00:35:54.931Z,21.8
2016-12-18T00:36:22.760Z,21.85
2016-12-18T00:36:50.604Z,21.88
2016-12-18T00:37:18.429Z,21.73
2016-12-18T00:37:46.540Z,21.77
2016-12-18T00:38:14.429Z,21.76
2016-12-18T00:38:42.276Z,21.76
2016-12-18T00:39:10.119Z,21.72
2016-12-18T00:39:37.964Z,21.88
2016-12-18T00:40:05.994Z,21.8
2016-12-18T00:40:33.846Z,21.91
2016-12-18T00:41:01.685Z,21.95
2016-12-18T00:41:29.536Z,22
2016-12-18T00:41:57.388Z,22
2016-12-18T00:42:25.224Z,21.99
2016-12-18T00:42:53.099Z,22.06
2016-12-18T00:43:20.949Z,21.99
2016-12-18T00:43:48.786Z,22.04
2016-12-18T00:44:16.600Z,21.98
2016-12-18T00:44:44.625Z,22.07
2016-12-18T00:45:12.440Z,22.04
2016-12-18T00:45:40.277Z,22.04
2016-12-18T00:46:08.120Z,22.14
2016-12-18T00:46:35.977Z,21.99
2016-12-18T00:47:03.757Z,22.08
2016-12-18T00:47:31.674Z,22.1
2016-12-18T00:47:59.507Z,22.06
2016-12-18T00:48:27.345Z,22.11
2016-12-18T00:48:55.176Z,22.17
2016-12-18T00:49:23.034Z,22.14
2016-12-18T00:49:51.115Z,22
2016-12-18T00:50:18.920Z,22.08
2016-12-18T00:50:46.796Z,22.11
2016-12-18T00:51:14.605Z,22.11
2016-12-18T00:51:42.416Z,22.11
2016-12-18T00:52:10.273Z,22.1
2016-12-18T00:52:38.063Z,22.08
2016-12-18T00:53:05.890Z,22
2016-12-18T00:53:33.787Z,22.08
2016-12-18T00:54:01.620Z,22.11
2016-12-18T00:54:29.449Z,22.08
2016-12-18T00:54:57.550Z,22.02
2016-12-18T00:55:25.364Z,22.08
2016-12-18T00:55:53.201Z,22.06
2016-12-18T00:56:21.030Z,22.08
2016-12-18T00:56:48.879Z,22.07
2016-12-18T00:57:16.691Z,21.95
2016-12-18T00:57:44.565Z,22.04
2016-12-18T00:58:12.418Z,21.96
2016-12-18T00:58:40.272Z,21.92
2016-12-18T00:59:08.146Z,21.88
2016-12-18T00:59:35.963Z,21.93
2016-12-18T01:00:04.005Z,21.75
2016-12-18T01:00:31.948Z,21.73
2016-12-18T01:00:59.777Z,21.72
2016-12-18T01:01:27.657Z,21.72
2016-12-18T01:01:55.484Z,21.76
2016-12-18T01:02:23.349Z,21.88
2016-12-18T01:02:51.189Z,21.79
2016-12-18T01:03:19.023Z,21.89
2016-12-18T01:03:46.841Z,21.89
2016-12-18T01:04:14.716Z,21.92
2016-12-18T01:04:42.636Z,21.8
2016-12-18T01:05:10.658Z,21.75
2016-12-18T01:05:38.468Z,21.79
2016-12-18T01:06:06.323Z,21.75
2016-12-18T01:06:34.154Z,21.77
2016-12-18T01:07:01.996Z,21.82
2016-12-18T01:07:29.873Z,21.8
2016-12-18T01:07:57.772Z,21.92
2016-12-18T01:08:25.645Z,21.89
2016-12-18T01:08:53.498Z,21.85
2016-12-18T01:09:21.301Z,21.95
2016-12-18T01:09:49.381Z,21.93
2016-12-18T01:10:17.249Z,21.89
2016-12-18T01:10:45.089Z,21.95
2016-12-18T01:11:12.910Z,22.02
2016-12-18T01:11:40.746Z,22
2016-12-18T01:12:08.607Z,21.98
2016-12-18T01:12:36.440Z,21.96
2016-12-18T01:13:04.300Z,21.95
2016-12-18T01:13:32.104Z,21.96
2016-12-18T01:13:59.927Z,22
2016-12-18T01:14:27.821Z,22
2016-12-18T01:14:55.864Z,22.06
2016-12-18T01:15:23.686Z,21.91
2016-12-18T01:15:51.483Z,21.82
2016-12-18T01:16:19.329Z,21.89
2016-12-18T01:16:47.184Z,21.91
2016-12-18T01:17:15.000Z,21.79
2016-12-18T01:17:42.818Z,21.82
2016-12-18T01:18:10.679Z,21.77
2016-12-18T01:18:38.504Z,21.76
2016-12-18T01:19:06.303Z,21.8
2016-12-18T01:19:34.180Z,21.85
2016-12-18T01:20:02.197Z,21.91
2016-12-18T01:20:30.009Z,21.88
2016-12-18T01:20:57.866Z,21.88
2016-12-18T01:21:25.671Z,21.85
2016-12-18T01:21:53.490Z,21.85
2016-12-18T01:22:21.313Z,21.88
2016-12-18T01:22:49.105Z,21.91
2016-12-18T01:23:16.947Z,21.83
2016-12-18T01:23:44.802Z,21.77
2016-12-18T01:24:12.618Z,21.76
2016-12-18T01:24:40.418Z,21.73
2016-12-18T01:25:08.480Z,21.61
2016-12-18T01:25:36.306Z,21.61
2016-12-18T01:26:04.134Z,21.64
2016-12-18T01:26:31.949Z,21.64
2016-12-18T01:26:59.746Z,21.57
2016-12-18T01:27:27.604Z,21.61
2016-12-18T01:27:55.493Z,21.7
2016-12-18T01:28:23.352Z,21.69
2016-12-18T01:28:51.175Z,21.75
2016-12-18T01:29:18.950Z,21.75
2016-12-18T01:29:46.804Z,21.76
2016-12-18T01:30:14.829Z,21.75
2016-12-18T01:30:42.690Z,21.91
2016-12-18T01:31:10.585Z,21.83
2016-12-18T01:31:38.447Z,21.92
2016-12-18T01:32:06.299Z,21.89
2016-12-18T01:32:34.154Z,21.93
2016-12-18T01:33:01.993Z,21.88
2016-12-18T01:33:29.794Z,21.96
2016-12-18T01:33:57.651Z,21.98
2016-12-18T01:34:25.524Z,21.99
2016-12-18T01:34:53.336Z,21.99
2016-12-18T01:35:21.383Z,22.07
2016-12-18T01:35:49.223Z,22.07
2016-12-18T01:36:17.074Z,22.1
2016-12-18T01:36:44.887Z,22.08
2016-12-18T01:37:12.748Z,22.08
2016-12-18T01:37:40.556Z,22.06
2016-12-18T01:38:08.391Z,21.99
2016-12-18T01:38:36.248Z,21.98
2016-12-18T01:39:04.096Z,22.02
2016-12-18T01:39:31.972Z,22.04
2016-12-18T01:39:59.869Z,22.08
2016-12-18T01:40:27.874Z,21.98
2016-12-18T01:40:55.720Z,21.99
2016-12-18T01:41:23.664Z,21.99
2016-12-18T01:41:51.541Z,22.06
2016-12-18T01:42:19.497Z,22.06
2016-12-18T01:42:47.331Z,22.04
2016-12-18T01:43:15.172Z,22.07
2016-12-18T01:43:43.003Z,22.04
2016-12-18T01:44:10.796Z,22.08
2016-12-18T01:44:38.679Z,22.1
2016-12-18T01:45:06.557Z,22.06
2016-12-18T01:45:34.537Z,22.08
2016-12-18T01:46:02.378Z,22.08
2016-12-18T01:46:30.210Z,22.04
2016-12-18T01:46:58.037Z,22.1
2016-12-18T01:47:25.883Z,22.11
2016-12-18T01:47:53.780Z,22.13
2016-12-18T01:48:21.604Z,22.15
2016-12-18T01:48:49.491Z,22.13
2016-12-18T01:49:17.402Z,22.15
2016-12-18T01:49:45.231Z,22.1
2016-12-18T01:50:13.073Z,22.06
2016-12-18T01:50:41.158Z,22.11
2016-12-18T01:51:09.105Z,22.07
2016-12-18T01:51:36.910Z,22.08
2016-12-18T01:52:04.851Z,22.06
2016-12-18T01:52:32.668Z,21.92
2016-12-18T01:53:00.564Z,21.89
2016-12-18T01:53:28.506Z,21.79
2016-12-18T01:53:56.331Z,21.76
2016-12-18T01:54:24.474Z,21.69
2016-12-18T01:54:52.334Z,21.66
2016-12-18T01:55:20.386Z,21.7
2016-12-18T01:55:48.185Z,21.58
2016-12-18T01:56:16.066Z,21.62
2016-12-18T01:56:43.920Z,21.54
2016-12-18T01:57:11.724Z,21.58
2016-12-18T01:57:39.566Z,21.6
2016-12-18T01:58:07.411Z,21.48
2016-12-18T01:58:35.265Z,21.61
2016-12-18T01:59:03.149Z,21.6
2016-12-18T01:59:31.008Z,21.64
2016-12-18T01:59:58.896Z,21.55
2016-12-18T02:00:26.917Z,21.57
2016-12-18T02:00:54.783Z,21.54
2016-12-18T02:01:23.162Z,21.58
2016-12-18T02:01:51.025Z,21.51
2016-12-18T02:02:18.861Z,21.46
2016-12-18T02:02:46.701Z,21.48
2016-12-18T02:03:14.523Z,21.52
2016-12-18T02:03:42.346Z,21.51
2016-12-18T02:04:10.202Z,21.43
2016-12-18T02:04:38.030Z,21.52
2016-12-18T02:05:05.909Z,21.51
2016-12-18T02:05:33.952Z,21.52
2016-12-18T02:06:01.755Z,21.58
2016-12-18T02:06:29.578Z,21.5
2016-12-18T02:06:57.385Z,21.62
2016-12-18T02:07:25.243Z,21.57
2016-12-18T02:07:53.072Z,21.54
2016-12-18T02:08:20.920Z,21.58
2016-12-18T02:08:48.787Z,21.61
2016-12-18T02:09:16.672Z,21.7
2016-12-18T02:09:44.472Z,21.67
2016-12-18T02:10:12.324Z,21.64
2016-12-18T02:10:40.489Z,21.61
2016-12-18T02:11:08.347Z,21.64
2016-12-18T02:11:36.280Z,21.58
2016-12-18T02:12:04.091Z,21.69
2016-12-18T02:12:31.959Z,21.7
2016-12-18T02:12:59.773Z,21.7
2016-12-18T02:13:27.723Z,21.67
2016-12-18T02:13:55.548Z,21.72
2016-12-18T02:14:23.393Z,21.69
2016-12-18T02:14:51.214Z,21.73
2016-12-18T02:15:19.053Z,21.73
2016-12-18T02:15:47.275Z,21.82
2016-12-18T02:16:15.135Z,21.77
2016-12-18T02:16:42.989Z,21.83
2016-12-18T02:17:10.825Z,21.85
2016-12-18T02:17:38.644Z,21.77
2016-12-18T02:18:06.445Z,21.88
2016-12-18T02:18:34.305Z,21.83
2016-12-18T02:19:02.151Z,21.8
2016-12-18T02:19:30.056Z,21.89
2016-12-18T02:19:57.910Z,21.89
2016-12-18T02:20:25.927Z,21.91
2016-12-18T02:20:53.797Z,21.79
2016-12-18T02:21:21.606Z,21.82
2016-12-18T02:21:49.387Z,21.96
2016-12-18T02:22:17.187Z,21.92
2016-12-18T02:22:45.060Z,21.88
2016-12-18T02:23:13.007Z,21.88
2016-12-18T02:23:40.844Z,21.91
2016-12-18T02:24:08.646Z,21.76
2016-12-18T02:24:36.480Z,21.89
2016-12-18T02:25:04.282Z,21.91
2016-12-18T02:25:32.348Z,21.88
2016-12-18T02:26:00.134Z,21.85
2016-12-18T02:26:28.255Z,21.82
2016-12-18T02:26:56.127Z,21.8
2016-12-18T02:27:23.977Z,21.83
2016-12-18T02:27:51.844Z,21.92
2016-12-18T02:28:19.695Z,21.8
2016-12-18T02:28:47.529Z,21.75
2016-12-18T02:29:15.345Z,21.75
2016-12-18T02:29:43.191Z,21.6
2016-12-18T02:30:11.005Z,21.61
2016-12-18T02:30:39.027Z,21.61
2016-12-18T02:31:06.854Z,21.52
2016-12-18T02:31:34.682Z,21.57
2016-12-18T02:32:02.616Z,21.6
2016-12-18T02:32:30.452Z,21.66
2016-12-18T02:32:58.369Z,21.64
2016-12-18T02:33:26.238Z,21.62
2016-12-18T02:33:54.119Z,21.6
2016-12-18T02:34:21.933Z,21.69
2016-12-18T02:34:49.753Z,21.64
2016-12-18T02:35:17.651Z,21.66
2016-12-18T02:35:45.655Z,21.7
2016-12-18T02:36:13.456Z,21.73
2016-12-18T02:36:41.275Z,21.75
2016-12-18T02:37:09.081Z,21.73
2016-12-18T02:37:36.934Z,21.75
2016-12-18T02:38:04.739Z,21.75
2016-12-18T02:38:32.589Z,21.77
2016-12-18T02:39:00.442Z,21.76
2016-12-18T02:39:28.360Z,21.76
2016-12-18T02:39:56.179Z,21.76
2016-12-18T02:40:24.018Z,21.75
2016-12-18T02:40:52.098Z,21.77
2016-12-18T02:41:19.938Z,21.72
2016-12-18T02:41:47.748Z,21.76
2016-12-18T02:42:15.543Z,21.76
2016-12-18T02:42:43.339Z,21.76
2016-12-18T02:43:11.182Z,21.72
2016-12-18T02:43:39.078Z,21.77
2016-12-18T02:44:06.889Z,21.82
2016-12-18T02:44:34.677Z,21.88
2016-12-18T02:45:02.521Z,21.89
2016-12-18T02:45:30.381Z,21.85
2016-12-18T02:45:58.443Z,21.79
2016-12-18T02:46:26.259Z,21.89
2016-12-18T02:46:54.133Z,21.79
2016-12-18T02:47:21.998Z,21.91
2016-12-18T02:47:49.938Z,21.8
2016-12-18T02:48:17.777Z,21.76
2016-12-18T02:48:45.600Z,21.69
2016-12-18T02:49:13.493Z,21.72
2016-12-18T02:49:41.304Z,21.76
2016-12-18T02:50:09.147Z,21.58
2016-12-18T02:50:37.182Z,21.6
2016-12-18T02:51:05.064Z,21.58
2016-12-18T02:51:32.872Z,21.64
2016-12-18T02:52:00.648Z,21.7
2016-12-18T02:52:28.491Z,21.7
2016-12-18T02:52:56.340Z,21.66
2016-12-18T02:53:24.192Z,21.72
2016-12-18T02:53:52.131Z,21.55
2016-12-18T02:54:19.944Z,21.62
2016-12-18T02:54:47.785Z,21.57
2016-12-18T02:55:15.617Z,21.67
2016-12-18T02:55:43.576Z,21.62
2016-12-18T02:56:11.383Z,21.62
2016-12-18T02:56:39.235Z,21.66
2016-12-18T02:57:07.118Z,21.61
2016-12-18T02:57:34.979Z,21.6
2016-12-18T02:58:02.813Z,21.55
2016-12-18T02:58:30.685Z,21.66
2016-12-18T02:58:58.571Z,21.62
2016-12-18T02:59:26.424Z,21.6
2016-12-18T02:59:54.269Z,21.66
2016-12-18T03:00:22.229Z,21.62
2016-12-18T03:00:50.111Z,21.7
2016-12-18T03:01:17.975Z,21.57
2016-12-18T03:01:45.786Z,21.64
2016-12-18T03:02:13.625Z,21.67
2016-12-18T03:02:41.505Z,21.58
2016-12-18T03:03:09.395Z,21.57
2016-12-18T03:03:37.220Z,21.62
2016-12-18T03:04:05.101Z,21.6
2016-12-18T03:04:32.933Z,21.6
2016-12-18T03:05:00.758Z,21.64
2016-12-18T03:05:28.591Z,21.58
2016-12-18T03:05:56.557Z,21.62
2016-12-18T03:06:24.371Z,21.6
2016-12-18T03:06:52.269Z,21.67
2016-12-18T03:07:20.169Z,21.69
2016-12-18T03:07:47.954Z,21.72
2016-12-18T03:08:15.845Z,21.64
2016-12-18T03:08:43.689Z,21.64
2016-12-18T03:09:11.531Z,21.62
2016-12-18T03:09:39.343Z,21.67
2016-12-18T03:10:07.148Z,21.76
2016-12-18T03:10:35.183Z,21.66
2016-12-18T03:11:03.132Z,21.62
2016-12-18T03:11:30.967Z,21.67
2016-12-18T03:11:58.802Z,21.67
2016-12-18T03:12:26.673Z,21.73
2016-12-18T03:12:54.498Z,21.69
2016-12-18T03:13:22.325Z,21.7
2016-12-18T03:13:50.177Z,21.72
2016-12-18T03:14:18.025Z,21.67
2016-12-18T03:14:45.838Z,21.61
2016-12-18T03:15:13.664Z,21.69
2016-12-18T03:15:41.452Z,21.64
2016-12-18T03:16:09.608Z,21.73
2016-12-18T03:16:37.414Z,21.62
2016-12-18T03:17:05.245Z,21.55
2016-12-18T03:17:33.097Z,21.62
2016-12-18T03:18:00.919Z,21.55
2016-12-18T03:18:28.824Z,21.62
2016-12-18T03:18:56.682Z,21.58
2016-12-18T03:19:24.528Z,21.69
2016-12-18T03:19:52.380Z,21.64
2016-12-18T03:20:20.296Z,21.64
2016-12-18T03:20:48.219Z,21.66
2016-12-18T03:21:16.109Z,21.58
2016-12-18T03:21:43.931Z,21.62
2016-12-18T03:22:11.782Z,21.66
2016-12-18T03:22:39.629Z,21.54
2016-12-18T03:23:07.505Z,21.55
2016-12-18T03:23:35.464Z,21.6
2016-12-18T03:24:03.324Z,21.52
2016-12-18T03:24:31.145Z,21.54
2016-12-18T03:24:58.986Z,21.6
2016-12-18T03:25:26.797Z,21.52
2016-12-18T03:25:54.716Z,21.58
2016-12-18T03:26:22.611Z,21.55
2016-12-18T03:26:50.431Z,21.58
2016-12-18T03:27:18.441Z,21.6
2016-12-18T03:27:46.332Z,21.6
2016-12-18T03:28:14.186Z,21.54
2016-12-18T03:28:42.024Z,21.58
2016-12-18T03:29:09.900Z,21.51
2016-12-18T03:29:37.714Z,21.52
2016-12-18T03:30:05.581Z,21.6
2016-12-18T03:30:33.477Z,21.57
2016-12-18T03:31:01.437Z,21.5
2016-12-18T03:31:29.367Z,21.58
2016-12-18T03:31:57.336Z,21.67
2016-12-18T03:32:25.128Z,21.62
2016-12-18T03:32:52.978Z,21.55
2016-12-18T03:33:20.836Z,21.6
2016-12-18T03:33:48.737Z,21.58
2016-12-18T03:34:16.755Z,21.54
2016-12-18T03:34:44.610Z,21.55
2016-12-18T03:35:12.449Z,21.67
2016-12-18T03:35:40.277Z,21.55
2016-12-18T03:36:08.205Z,21.66
2016-12-18T03:36:36.025Z,21.62
2016-12-18T03:37:03.933Z,21.6
2016-12-18T03:37:31.779Z,21.61
2016-12-18T03:37:59.677Z,21.61
2016-12-18T03:38:27.616Z,21.67
2016-12-18T03:38:55.428Z,21.7
2016-12-18T03:39:23.462Z,21.69
2016-12-18T03:39:51.410Z,21.69
2016-12-18T03:40:19.182Z,21.67
2016-12-18T03:40:47.066Z,21.64
2016-12-18T03:41:14.980Z,21.64
2016-12-18T03:41:42.805Z,21.61
2016-12-18T03:42:10.647Z,21.72
2016-12-18T03:42:38.483Z,21.7
2016-12-18T03:43:06.358Z,21.69
2016-12-18T03:43:34.234Z,21.69
2016-12-18T03:44:02.401Z,21.67
2016-12-18T03:44:30.216Z,21.72
2016-12-18T03:44:58.061Z,21.73
2016-12-18T03:45:25.910Z,21.75
2016-12-18T03:45:53.733Z,21.7
2016-12-18T03:46:21.766Z,21.7
2016-12-18T03:46:49.604Z,21.72
2016-12-18T03:47:17.559Z,21.67
2016-12-18T03:47:45.426Z,21.73
2016-12-18T03:48:13.268Z,21.7
2016-12-18T03:48:41.072Z,21.64
2016-12-18T03:49:09.180Z,21.62
2016-12-18T03:49:37.030Z,21.67
2016-12-18T03:50:04.889Z,21.72
2016-12-18T03:50:32.696Z,21.61
2016-12-18T03:51:00.596Z,21.72
2016-12-18T03:51:28.433Z,21.66
2016-12-18T03:51:56.298Z,21.69
2016-12-18T03:52:24.178Z,21.69
2016-12-18T03:52:51.998Z,21.6
2016-12-18T03:53:19.880Z,21.6
2016-12-18T03:53:47.684Z,21.69
2016-12-18T03:54:15.497Z,21.7
2016-12-18T03:54:43.302Z,21.57
2016-12-18T03:55:11.137Z,21.64
2016-12-18T03:55:38.947Z,21.62
2016-12-18T03:56:06.868Z,21.57
2016-12-18T03:56:34.672Z,21.62
2016-12-18T03:57:02.507Z,21.58
2016-12-18T03:57:30.351Z,21.62
2016-12-18T03:57:58.154Z,21.66
2016-12-18T03:58:25.998Z,21.66
2016-12-18T03:58:53.824Z,21.6
2016-12-18T03:59:21.678Z,21.46
2016-12-18T03:59:49.513Z,21.54
2016-12-18T04:00:17.434Z,21.55
2016-12-18T04:00:45.288Z,21.5
2016-12-18T04:01:13.195Z,21.51
2016-12-18T04:01:41.056Z,21.58
2016-12-18T04:02:08.860Z,21.55
2016-12-18T04:02:36.731Z,21.5
2016-12-18T04:03:04.578Z,21.58
2016-12-18T04:03:32.471Z,21.6
2016-12-18T04:04:00.314Z,21.55
2016-12-18T04:04:28.156Z,21.57
2016-12-18T04:04:56.014Z,21.61
2016-12-18T04:05:23.849Z,21.57
2016-12-18T04:05:51.935Z,21.62
2016-12-18T04:06:19.877Z,21.55
2016-12-18T04:06:47.703Z,21.51
2016-12-18T04:07:15.516Z,21.58
2016-12-18T04:07:43.359Z,21.61
2016-12-18T04:08:11.194Z,21.55
2016-12-18T04:08:39.034Z,21.6
2016-12-18T04:09:06.846Z,21.6
2016-12-18T04:09:34.676Z,21.57
2016-12-18T04:10:02.481Z,21.55
2016-12-18T04:10:30.425Z,21.48
2016-12-18T04:10:58.220Z,21.48
2016-12-18T04:11:26.214Z,21.4
2016-12-18T04:11:54.025Z,21.45
2016-12-18T04:12:21.838Z,21.42
2016-12-18T04:12:49.683Z,21.43
2016-12-18T04:13:17.553Z,21.37
2016-12-18T04:13:45.385Z,21.42
2016-12-18T04:14:13.178Z,21.42
2016-12-18T04:14:40.985Z,21.42
2016-12-18T04:15:08.811Z,21.42
2016-12-18T04:15:36.696Z,21.42
2016-12-18T04:16:04.495Z,21.45
2016-12-18T04:16:36.928Z,21.35
2016-12-18T04:17:04.751Z,21.42
2016-12-18T04:17:32.560Z,21.42
2016-12-18T04:18:00.421Z,21.35
2016-12-18T04:18:28.309Z,21.42
2016-12-18T04:18:56.141Z,21.33
2016-12-18T04:19:23.981Z,21.29
2016-12-18T04:19:51.822Z,21.25
2016-12-18T04:20:19.662Z,21.22
2016-12-18T04:20:47.494Z,21.21
2016-12-18T04:21:15.433Z,21.21
2016-12-18T04:21:43.288Z,21.14
2016-12-18T04:22:11.098Z,21.24
2016-12-18T04:22:38.977Z,21.18
2016-12-18T04:23:06.847Z,21.24
2016-12-18T04:23:34.711Z,21.18
2016-12-18T04:24:02.647Z,21.27
2016-12-18T04:24:30.582Z,21.24
2016-12-18T04:24:58.497Z,21.21
2016-12-18T04:25:26.423Z,21.21
2016-12-18T04:25:54.309Z,21.25
2016-12-18T04:26:22.254Z,21.29
2016-12-18T04:26:50.138Z,21.3
2016-12-18T04:27:18.056Z,21.25
2016-12-18T04:27:46.103Z,21.24
2016-12-18T04:28:13.969Z,21.21
2016-12-18T04:28:41.928Z,21.33
2016-12-18T04:29:09.779Z,21.33
2016-12-18T04:29:37.663Z,21.36
2016-12-18T04:30:05.604Z,21.25
2016-12-18T04:30:33.559Z,21.27
2016-12-18T04:31:01.472Z,21.29
2016-12-18T04:31:29.481Z,21.35
2016-12-18T04:31:57.337Z,21.32
2016-12-18T04:32:25.174Z,21.27
2016-12-18T04:32:53.463Z,21.24
2016-12-18T04:33:21.348Z,21.2
2016-12-18T04:33:49.209Z,21.11
2016-12-18T04:34:17.187Z,21.15
2016-12-18T04:34:45.048Z,21.17
2016-12-18T04:35:12.899Z,21.2
2016-12-18T04:35:40.770Z,21.21
2016-12-18T04:36:08.617Z,21.27
2016-12-18T04:36:36.548Z,21.21
2016-12-18T04:37:04.430Z,21.14
2016-12-18T04:37:32.504Z,21.11
2016-12-18T04:38:00.378Z,21.09
2016-12-18T04:38:28.253Z,21.11
2016-12-18T04:38:56.081Z,21.11
2016-12-18T04:39:23.965Z,21.2
2016-12-18T04:39:51.856Z,21.14
2016-12-18T04:40:19.712Z,21.15
2016-12-18T04:40:47.547Z,21.11
2016-12-18T04:41:15.480Z,21.09
2016-12-18T04:41:43.446Z,21.17
2016-12-18T04:42:11.326Z,21.2
2016-12-18T04:42:39.249Z,21.29
2016-12-18T04:43:07.109Z,21.2
2016-12-18T04:43:35.004Z,21.24
2016-12-18T04:44:03.247Z,21.22
2016-12-18T04:44:31.117Z,21.21
2016-12-18T04:44:59.031Z,21.21
2016-12-18T04:45:27.043Z,21.25
2016-12-18T04:45:55.014Z,21.24
2016-12-18T04:46:23.187Z,21.24
2016-12-18T04:46:51.026Z,21.24
2016-12-18T04:47:18.956Z,21.32
2016-12-18T04:47:46.849Z,21.21
2016-12-18T04:48:14.800Z,21.18
2016-12-18T04:48:42.685Z,21.32
2016-12-18T04:49:10.566Z,21.22
2016-12-18T04:49:38.474Z,21.32
2016-12-18T04:50:06.377Z,21.29
2016-12-18T04:50:34.287Z,21.33
2016-12-18T04:51:02.190Z,21.35
2016-12-18T04:51:30.133Z,21.32
2016-12-18T04:51:57.995Z,21.4
2016-12-18T04:52:25.869Z,21.33
2016-12-18T04:52:53.775Z,21.4
2016-12-18T04:53:21.692Z,21.24
2016-12-18T04:53:49.711Z,21.24
2016-12-18T04:54:17.744Z,21.27
2016-12-18T04:54:46.150Z,21.27
2016-12-18T04:55:14.034Z,21.21
2016-12-18T04:55:41.948Z,21.25
2016-12-18T04:56:09.894Z,21.25
2016-12-18T04:56:38.097Z,21.27
2016-12-18T04:57:06.174Z,21.25
2016-12-18T04:57:34.188Z,21.35
2016-12-18T04:58:02.187Z,21.29
2016-12-18T04:58:30.062Z,21.35
2016-12-18T04:58:57.993Z,21.37
2016-12-18T04:59:25.891Z,21.35
2016-12-18T04:59:53.743Z,21.37
2016-12-18T05:00:21.594Z,21.37
2016-12-18T05:00:49.460Z,21.45
2016-12-18T05:01:17.659Z,21.46
2016-12-18T05:01:45.610Z,21.45
2016-12-18T05:02:13.556Z,21.42
2016-12-18T05:02:41.543Z,21.43
2016-12-18T05:03:09.445Z,21.4
2016-12-18T05:03:37.352Z,21.4
2016-12-18T05:04:05.605Z,21.37
2016-12-18T05:04:33.660Z,21.37
2016-12-18T05:05:01.547Z,21.42
2016-12-18T05:05:29.491Z,21.37
2016-12-18T05:05:57.353Z,21.33
2016-12-18T05:06:25.251Z,21.37
2016-12-18T05:06:53.730Z,21.33
2016-12-18T05:07:21.608Z,21.42
2016-12-18T05:07:49.521Z,21.4
2016-12-18T05:08:17.404Z,21.37
2016-12-18T05:08:45.327Z,21.35
2016-12-18T05:09:13.328Z,21.4
2016-12-18T05:09:41.572Z,21.37
2016-12-18T05:10:09.424Z,21.46
2016-12-18T05:10:37.385Z,21.4
2016-12-18T05:11:05.442Z,21.4
2016-12-18T05:11:33.385Z,21.43
2016-12-18T05:12:01.331Z,21.4
2016-12-18T05:12:29.393Z,21.39
2016-12-18T05:12:57.254Z,21.36
2016-12-18T05:13:25.103Z,21.2
2016-12-18T05:13:52.976Z,21.22
2016-12-18T05:14:22.282Z,21.24
2016-12-18T05:14:50.521Z,21.21
2016-12-18T05:15:18.461Z,21.25
2016-12-18T05:15:46.667Z,21.22
2016-12-18T05:16:14.709Z,21.27
2016-12-18T05:16:43.000Z,21.21
2016-12-18T05:17:11.106Z,21.22
2016-12-18T05:17:39.033Z,21.25
2016-12-18T05:18:07.033Z,21.33
2016-12-18T05:18:34.979Z,21.21
2016-12-18T05:19:02.833Z,21.33
2016-12-18T05:19:30.865Z,21.25
2016-12-18T05:19:58.835Z,21.36
2016-12-18T05:20:27.317Z,21.33
2016-12-18T05:20:55.595Z,21.25
2016-12-18T05:21:23.682Z,21.27
2016-12-18T05:21:52.966Z,21.25
2016-12-18T05:22:20.866Z,21.33
2016-12-18T05:22:49.382Z,21.35
2016-12-18T05:23:18.368Z,21.32
2016-12-18T05:23:46.193Z,21.32
2016-12-18T05:24:14.098Z,21.4
2016-12-18T05:24:42.000Z,21.37
2016-12-18T05:25:09.989Z,21.42
2016-12-18T05:25:38.317Z,21.39
2016-12-18T05:26:06.417Z,21.42
2016-12-18T05:26:34.734Z,21.42
2016-12-18T05:27:02.898Z,21.42
2016-12-18T05:27:31.650Z,21.42
2016-12-18T05:28:00.635Z,21.37
2016-12-18T05:28:29.060Z,21.37
2016-12-18T05:28:57.386Z,21.37
2016-12-18T05:29:25.392Z,21.43
2016-12-18T05:29:53.483Z,21.45
2016-12-18T05:30:21.532Z,21.33
2016-12-18T05:30:49.459Z,21.37
2016-12-18T05:31:17.352Z,21.37
2016-12-18T05:31:45.289Z,21.33
2016-12-18T05:32:13.620Z,21.27
2016-12-18T05:32:42.927Z,21.27
2016-12-18T05:33:11.265Z,21.11
2016-12-18T05:33:39.448Z,21.14
2016-12-18T05:34:07.558Z,21.2
2016-12-18T05:34:36.062Z,21.17
2016-12-18T05:35:04.008Z,21.18
2016-12-18T05:35:31.971Z,21.17
2016-12-18T05:35:59.967Z,21.2
2016-12-18T05:36:27.952Z,21.22
2016-12-18T05:36:56.161Z,21.22
2016-12-18T05:37:24.561Z,21.14
2016-12-18T05:37:52.774Z,21.21
2016-12-18T05:38:20.876Z,21.17
2016-12-18T05:38:48.952Z,21.15
2016-12-18T05:39:16.818Z,21.18
2016-12-18T05:39:46.126Z,21.14
2016-12-18T05:40:14.028Z,21.06
2016-12-18T05:40:41.992Z,21.15
2016-12-18T05:41:11.109Z,21.11
2016-12-18T05:41:38.973Z,21.11
2016-12-18T05:42:07.028Z,21.02
2016-12-18T05:42:35.078Z,21.05
2016-12-18T05:43:02.983Z,21.06
2016-12-18T05:43:31.039Z,21.06
2016-12-18T05:43:58.983Z,21.07
2016-12-18T05:44:27.420Z,21.14
2016-12-18T05:44:55.595Z,21.17
2016-12-18T05:45:23.827Z,21.12
2016-12-18T05:45:51.676Z,21.15
2016-12-18T05:46:19.758Z,21.18
2016-12-18T05:46:47.924Z,21.22
2016-12-18T05:47:15.921Z,21.24
2016-12-18T05:47:44.030Z,21.24
2016-12-18T05:48:12.171Z,21.18
2016-12-18T05:48:40.085Z,21.09
2016-12-18T05:49:08.314Z,21.22
2016-12-18T05:49:36.170Z,21.12
2016-12-18T05:50:04.051Z,21.06
2016-12-18T05:50:32.113Z,21.05
2016-12-18T05:51:00.041Z,21.07
2016-12-18T05:51:28.128Z,21.11
2016-12-18T05:51:56.250Z,21.05
2016-12-18T05:52:24.839Z,21.09
2016-12-18T05:52:52.690Z,21.09
2016-12-18T05:53:20.978Z,21.07
2016-12-18T05:53:48.863Z,21.02
2016-12-18T05:54:16.855Z,21
2016-12-18T05:54:44.686Z,21.11
2016-12-18T05:55:15.670Z,21
2016-12-18T05:55:43.637Z,21.06
2016-12-18T05:56:11.771Z,21.05
2016-12-18T05:56:40.864Z,21.06
2016-12-18T05:57:08.825Z,21.03
2016-12-18T05:57:36.732Z,21.07
2016-12-18T05:58:04.567Z,21.15
2016-12-18T05:58:32.471Z,21.09
2016-12-18T05:59:01.096Z,21.07
2016-12-18T05:59:28.987Z,21.05
2016-12-18T05:59:57.181Z,21.03
2016-12-18T06:00:25.175Z,21.07
2016-12-18T06:00:53.243Z,21.05
2016-12-18T06:01:21.229Z,21.09